"WATCHING THE WEATHER TO PROTECT LIFE AND PROPERTY"


Aviation
Satellite (InfraRed)


KFLL 220353Z 10014KT 10SM FEW025 SCT033 SCT150 BKN250 27/25 A3008 RMK AO2 SLP184 T02720250
KMCO 220353Z 05007KT 10SM SCT029 SCT140 OVC250 23/22 A3016 RMK AO2 SLP213 SCT029 V FEW T02330222 $
KMIA 220253Z 09013KT 7SM FEW023 FEW030 SCT150 OVC250 28/24 A3009 RMK AO2 SLP189 T02830239 51012 $
KTPA 220253Z VRB06KT 10SM BKN150 BKN250 26/20 A3015 RMK AO2 SLP210 T02560200 53011
MDPP 220300Z 11006KT 9999 FEW018 25/24 Q1017
MDSD 220300Z 05005KT 9999 BKN017 25/23 Q1016
MKJS 220300Z 11011KT 9999 FEW022 29/23 Q1014
MTPP 212100Z 10010G20KT 9999 FEW027 33/18 Q1011 A2986
MUHA 220255Z 15003KT 9000 SCT025 BKN065 24/23 Q1017
MYNN 220300Z 08006KT 9000 FEW018 BKN200 28/24 A3011 RMK HZ
TAPA 220300Z 09010KT 9999 BKN020 27/22 Q1016 NOSIG
TFFF 220330Z AUTO 09011KT 9999 SCT029 BKN037 BKN054 27/23 Q1016 NOSIG
TFFR 220330Z AUTO 08004KT CAVOK 26/21 Q1017 NOSIG
TIST 220053Z AUTO 09008KT 27/23 A3005 RMK AO2 SLP175 T02720228 $
TISX 202037Z 12009KT 9000 DU SCT030 30/23 A2992 RMK SLPNO WND DATA ESTMD ALSTG ESTMD LAST
TJSJ 220256Z 13004KT 10SM FEW030 27/23 A3005 RMK AO2 SLP176 T02720228 51008 $
TKPK 220100Z 08009KT 9999 FEW020 27/22 Q1017
TNCA 220300Z 09019KT 9999 FEW018 28/24 Q1011 A2988 NOSIG
TNCB 220255Z AUTO 09016KT 060V120 9999 SCT017/// 28/24 Q1012
TNCC 220300Z 11014KT 9999 FEW018 28/24 Q1013 NOSIG
TNCE 220255Z AUTO 08013KT 040V120 //// // ///////// 27/21 Q1017 RE//
TNCM 212200Z 13004KT 9999 FEW022 28/22 Q1016 A3001 NOSIG
TQPF 212200Z 08011KT 9999 FEW020 27/21 Q1017 SLT HZ
TUPJ 212100Z 11014KT 9999 FEW023 29/23 Q1016 RMK A3000